createdAt,value
2024-05-09T00:00:00.619Z,81.94
2024-05-09T00:05:01.117Z,82.36
2024-05-09T00:10:00.585Z,83.01
2024-05-09T00:15:00.616Z,82.91
2024-05-09T00:20:00.894Z,83.97
2024-05-09T00:25:00.630Z,85.55
2024-05-09T00:30:00.658Z,86.17
2024-05-09T00:35:00.921Z,86.72
2024-05-09T00:40:00.647Z,87.48
2024-05-09T00:45:00.663Z,87.89
2024-05-09T00:50:00.793Z,88.66
2024-05-09T00:55:00.548Z,89.58
2024-05-09T01:00:00.717Z,89.93
2024-05-09T01:05:01.330Z,90.24
2024-05-09T01:10:00.591Z,90.85
2024-05-09T01:15:00.693Z,90.75
2024-05-09T01:20:01.044Z,91.1
2024-05-09T01:25:00.635Z,91.51
2024-05-09T01:30:00.601Z,91.82
2024-05-09T01:35:01.012Z,92.14
2024-05-09T01:40:00.650Z,92.14
2024-05-09T01:45:00.627Z,92.03
2024-05-09T01:50:01.347Z,91.97
2024-05-09T01:55:07.221Z,91.87
2024-05-09T02:00:00.711Z,92.22
2024-05-09T02:05:01.268Z,92.53
2024-05-09T02:10:00.587Z,93.19
2024-05-09T02:20:00.988Z,93.54
2024-05-09T02:25:00.584Z,94.52
2024-05-09T02:30:00.846Z,95.13
2024-05-09T02:35:00.988Z,95.9
2024-05-09T02:40:00.557Z,96.1
2024-05-09T02:45:00.589Z,97.18
2024-05-09T02:50:00.850Z,97.9
2024-05-09T02:55:00.597Z,98.63
2024-05-09T03:00:00.747Z,98.79
2024-05-09T03:05:00.839Z,98.28
2024-05-09T03:10:00.555Z,97.96
2024-05-09T03:15:00.665Z,97.39
2024-05-09T03:20:00.895Z,97.29
2024-05-09T03:25:00.636Z,97.9
2024-05-09T03:30:00.882Z,97.95
2024-05-09T03:35:00.801Z,97.74
2024-05-09T03:40:00.555Z,97.33
2024-05-09T03:45:00.631Z,97.99
2024-05-09T03:50:00.864Z,98.82
2024-05-09T03:55:00.542Z,99.34
2024-05-09T04:00:00.610Z,99.24
2024-05-09T04:05:00.871Z,98.93
2024-05-09T04:10:00.684Z,99.03
2024-05-09T04:15:00.570Z,99.4
2024-05-09T04:20:01.344Z,99.5
2024-05-09T04:25:00.632Z,99.29
2024-05-09T04:30:00.782Z,98.84
2024-05-09T04:35:00.728Z,99.04
2024-05-09T04:40:00.540Z,98.94
2024-05-09T04:45:00.596Z,98.79
2024-05-09T04:50:00.771Z,98.58
2024-05-09T04:55:00.659Z,98.23
2024-05-09T05:00:00.598Z,97.15
2024-05-09T05:05:01.264Z,97.05
2024-05-09T05:10:00.546Z,95.97
2024-05-09T05:15:00.684Z,95.52
2024-05-09T05:20:01.345Z,95.27
2024-05-09T05:25:00.568Z,94.6
2024-05-09T05:30:00.762Z,93.68
2024-05-09T05:35:00.875Z,92.61
2024-05-09T05:40:00.619Z,91.88
2024-05-09T05:45:00.660Z,91.53
2024-05-09T05:50:01.362Z,90.21
2024-05-09T05:55:00.585Z,89.19
2024-05-09T06:00:00.647Z,88.84
2024-05-09T06:05:01.312Z,88.63
2024-05-09T06:10:00.699Z,87.87
2024-05-09T06:15:00.639Z,87.53
2024-05-09T06:20:01.051Z,86.97
2024-05-09T06:25:00.635Z,85.9
2024-05-09T06:30:00.636Z,83.88
2024-05-09T06:35:00.788Z,83.98
2024-05-09T06:40:00.602Z,82.88
2024-05-09T06:45:00.707Z,80.76
2024-05-09T06:50:00.938Z,80.21
2024-05-09T06:55:00.583Z,76.5
2024-05-09T07:00:01.390Z,75.44
2024-05-09T07:05:01.858Z,74.62
2024-05-09T07:10:00.614Z,74.38
2024-05-09T07:15:00.619Z,74.18
2024-05-09T07:20:01.250Z,73.7
2024-05-09T07:25:00.579Z,72.62
2024-05-09T07:30:00.606Z,72.38
2024-05-09T07:35:00.802Z,70.38
2024-05-09T07:40:00.563Z,69.33
2024-05-09T07:55:01.986Z,67.67
2024-05-09T08:00:00.623Z,66.73
2024-05-09T08:05:01.698Z,65.28
2024-05-09T08:10:00.841Z,64.47
2024-05-09T08:15:00.563Z,64.44
2024-05-09T08:20:05.912Z,62.69
2024-05-09T08:25:00.765Z,61.21
2024-05-09T08:30:00.912Z,61.08
2024-05-09T08:35:00.809Z,61.96
2024-05-09T08:40:01.088Z,60.21
2024-05-09T08:45:00.737Z,60.05
2024-05-09T08:50:00.940Z,57.3
2024-05-09T08:55:00.830Z,58.59
2024-05-09T09:00:00.775Z,56.75
2024-05-09T09:05:01.298Z,56.92
2024-05-09T09:10:00.848Z,57.02
2024-05-09T09:15:00.707Z,56.27
2024-05-09T09:20:01.156Z,57.32
2024-05-09T09:25:00.839Z,56.19
2024-05-09T09:30:00.880Z,56.03
2024-05-09T09:35:01.263Z,51.94
2024-05-09T09:40:00.726Z,52.57
2024-05-09T09:45:06.225Z,51.31
2024-05-09T09:50:00.574Z,48.85
2024-05-09T09:55:00.932Z,50.03
2024-05-09T10:00:00.626Z,48.62
2024-05-09T10:05:01.375Z,50.53
2024-05-09T10:10:00.957Z,49.43
2024-05-09T10:15:00.618Z,50.76
2024-05-09T10:20:00.855Z,49.62
2024-05-09T10:25:05.636Z,51.76
2024-05-09T10:30:00.605Z,51.14
2024-05-09T10:35:01.267Z,49.61
2024-05-09T10:40:00.867Z,47.44
2024-05-09T10:45:00.551Z,47.3
2024-05-09T10:50:01.058Z,46.05
2024-05-09T10:55:06.166Z,46.14
2024-05-09T11:00:00.711Z,46.73
2024-05-09T11:05:01.440Z,44.48
2024-05-09T11:10:00.868Z,47.51
2024-05-09T11:15:00.655Z,45.13
2024-05-09T11:20:01.156Z,46.68
2024-05-09T11:25:00.734Z,42.59
2024-05-09T11:30:00.587Z,42.9
2024-05-09T11:35:00.564Z,45.33
2024-05-09T11:40:00.937Z,46.99
2024-05-09T11:45:00.634Z,44.35
2024-05-09T11:50:01.345Z,43.13
2024-05-09T11:55:00.913Z,42.85
2024-05-09T12:00:00.612Z,42.03
2024-05-09T12:05:01.360Z,43.21
2024-05-09T12:10:01.144Z,45.39
2024-05-09T12:15:00.887Z,46.51
2024-05-09T12:20:00.920Z,44.84
2024-05-09T12:25:01.168Z,42.31
2024-05-09T12:30:00.938Z,42.59
2024-05-09T12:35:00.960Z,42.65
2024-05-09T12:40:01.131Z,41.63
2024-05-09T12:45:00.950Z,41.81
2024-05-09T12:50:01.225Z,42.31
2024-05-09T12:55:01.331Z,42.29
2024-05-09T13:00:00.812Z,44.39
2024-05-09T13:05:01.483Z,43.25
2024-05-09T13:10:01.452Z,43.77
2024-05-09T13:15:00.895Z,43.75
2024-05-09T13:20:00.909Z,44.84
2024-05-09T13:25:01.088Z,44.53
2024-05-09T13:30:00.901Z,44.51
2024-05-09T13:35:00.956Z,44.47
2024-05-09T13:40:01.249Z,42.67
2024-05-09T13:45:00.821Z,43.86
2024-05-09T13:50:00.604Z,42.21
2024-05-09T13:55:00.747Z,42.29
2024-05-09T14:00:00.850Z,44.66
2024-05-09T14:05:01.420Z,41.13
2024-05-09T14:10:00.952Z,40.52
2024-05-09T14:15:00.670Z,39.01
2024-05-09T14:20:00.578Z,40.34
2024-05-09T14:25:00.781Z,40.36
2024-05-09T14:30:00.651Z,40.24
2024-05-09T14:35:00.891Z,40.3
2024-05-09T14:40:00.893Z,40.38
2024-05-09T14:45:00.571Z,40
2024-05-09T14:50:00.663Z,39.49
2024-05-09T14:55:01.752Z,38.08
2024-05-09T15:00:00.667Z,39.88
2024-05-09T15:05:01.375Z,38.01
2024-05-09T15:10:00.904Z,37.95
2024-05-09T15:15:00.636Z,39.36
2024-05-09T15:20:01.251Z,39.68
2024-05-09T15:25:00.770Z,39.9
2024-05-09T15:30:00.613Z,39.44
2024-05-09T15:35:00.572Z,39.25
2024-05-09T15:40:00.882Z,39.16
2024-05-09T15:45:00.581Z,38.95
2024-05-09T15:50:01.156Z,38.87
2024-05-09T15:55:00.858Z,38.87
2024-05-09T16:00:00.820Z,38.89
2024-05-09T16:05:01.257Z,38.87
2024-05-09T16:10:01.001Z,39.88
2024-05-09T16:15:00.568Z,39.33
2024-05-09T16:20:00.725Z,39.25
2024-05-09T16:25:00.800Z,38.27
2024-05-09T16:30:00.582Z,39.28
2024-05-09T16:35:00.886Z,39.24
2024-05-09T16:40:01.035Z,40.25
2024-05-09T16:45:00.784Z,40.87
2024-05-09T16:50:00.671Z,41.39
2024-05-09T16:55:00.947Z,41.39
2024-05-09T17:00:00.565Z,40.73
2024-05-09T17:05:01.634Z,41.15
2024-05-09T17:10:00.962Z,41.45
2024-05-09T17:15:00.607Z,42.45
2024-05-09T17:20:00.637Z,42.33
2024-05-09T17:25:01.170Z,41.95
2024-05-09T17:30:00.588Z,43.07
2024-05-09T17:35:01.420Z,43.43
2024-05-09T17:40:00.922Z,44.55
2024-05-09T17:45:01.288Z,46.55
2024-05-09T17:50:01.077Z,46.36
2024-05-09T17:55:01.552Z,47.49
2024-05-09T18:00:00.723Z,48.54
2024-05-09T18:05:01.959Z,50.2
2024-05-09T18:10:01.095Z,50.33
2024-05-09T18:15:00.559Z,50.27
2024-05-09T18:20:01.047Z,51.38
2024-05-09T18:25:00.842Z,52.21
2024-05-09T18:30:00.630Z,53.74
2024-05-09T18:35:01.132Z,55.21
2024-05-09T18:40:01.075Z,55.54
2024-05-09T18:45:00.902Z,56.37
2024-05-09T18:50:01.067Z,57.41
2024-05-09T18:55:00.803Z,58.28
2024-05-09T19:00:00.696Z,59.32
2024-05-09T19:05:01.415Z,61.5
2024-05-09T19:10:00.924Z,61.83
2024-05-09T19:15:00.567Z,62.84
2024-05-09T19:20:01.359Z,64.33
2024-05-09T19:25:00.843Z,64.56
2024-05-09T19:30:00.646Z,65.81
2024-05-09T19:35:00.564Z,66.55
2024-05-09T19:40:01.190Z,68.01
2024-05-09T19:45:00.554Z,69.05
2024-05-09T19:50:01.631Z,68.78
2024-05-09T19:55:01.132Z,69.8
2024-05-09T20:00:00.715Z,70.55
2024-05-09T20:05:01.873Z,70.78
2024-05-09T20:10:01.058Z,72.34
2024-05-09T20:15:00.704Z,73.46
2024-05-09T20:20:01.347Z,73.6
2024-05-09T20:25:00.969Z,74.45
2024-05-09T20:30:00.713Z,75.06
2024-05-09T20:35:00.558Z,75.71
2024-05-09T20:40:00.924Z,76.73
2024-05-09T20:45:00.632Z,77.48
2024-05-09T20:50:00.796Z,77.79
2024-05-09T20:55:01.028Z,78.54
2024-05-09T21:00:00.703Z,78.95
2024-05-09T21:05:01.457Z,79.15
2024-05-09T21:10:00.807Z,80.01
2024-05-09T21:15:00.543Z,80.51
2024-05-09T21:20:00.592Z,81.27
2024-05-09T21:25:00.839Z,81.68
2024-05-09T21:30:00.537Z,81.92
2024-05-09T21:35:00.578Z,82.94
2024-05-09T21:40:01.297Z,83.15
2024-05-09T21:45:00.623Z,83.29
2024-05-09T21:50:00.612Z,84.31
2024-05-09T21:55:00.914Z,84.62
2024-05-09T22:00:00.607Z,84.72
2024-05-09T22:05:01.642Z,85.17
2024-05-09T22:10:01.355Z,85.58
2024-05-09T22:15:00.675Z,86.09
2024-05-09T22:20:00.628Z,86.14
2024-05-09T22:25:01.006Z,86.64
2024-05-09T22:30:00.611Z,86.95
2024-05-09T22:35:01.310Z,87.26
2024-05-09T22:40:07.114Z,87.26
2024-05-09T22:45:00.694Z,87.4
2024-05-09T22:50:00.541Z,87.92
2024-05-09T22:55:00.744Z,87.81
2024-05-09T23:00:00.679Z,88.27
2024-05-09T23:05:01.307Z,88.88
2024-05-09T23:10:01.145Z,89.23
2024-05-09T23:15:00.650Z,89.33
2024-05-09T23:20:00.700Z,89.23
2024-05-09T23:25:00.867Z,89.58
2024-05-09T23:30:00.587Z,89.88
2024-05-09T23:35:01.135Z,90.13
2024-05-09T23:40:01.023Z,90.65
2024-05-09T23:45:00.632Z,91.05
2024-05-09T23:50:00.563Z,91.3
2024-05-09T23:55:00.880Z,91.3
